Time;durP1;ratioP1;P1;durP2;ratioP2;P2;SDS_P1;SDS_P2;PMS_P1;PMS_P2;Temp;Humidity;BMP_temperature;BMP_pressure;BME280_temperature;BME280_humidity;BME280_pressure;Samples;Min_cycle;Max_cycle;Signal;HPM_P1;HPM_P2
2022/01/16 00:01:33;;;;;;;51.85;16.30;;;;;;;-1.45;100.00;99802.47;5113408;28;20055;-82
2022/01/16 00:04:09;;;;;;;39.90;16.33;;;;;;;-1.33;100.00;99811.53;5106684;28;20044;-82
2022/01/16 00:06:39;;;;;;;50.22;16.73;;;;;;;-1.34;100.00;99832.03;5112948;27;20058;-82
2022/01/16 00:09:11;;;;;;;47.25;16.20;;;;;;;-1.51;100.00;99830.34;5113166;28;20055;-82
2022/01/16 00:11:45;;;;;;;41.17;16.20;;;;;;;-1.58;100.00;99810.38;5112789;28;20157;-82
2022/01/16 00:14:12;;;;;;;42.85;14.48;;;;;;;-1.45;100.00;99840.66;5109224;28;20499;-82
2022/01/16 00:16:40;;;;;;;42.67;16.10;;;;;;;-1.51;100.00;99826.84;5111908;28;20071;-82
2022/01/16 00:19:07;;;;;;;49.00;17.23;;;;;;;-1.44;100.00;99829.06;5104408;28;20055;-82
2022/01/16 00:21:41;;;;;;;48.57;17.63;;;;;;;-1.51;100.00;99835.69;5108877;28;20483;-82
2022/01/16 00:24:09;;;;;;;46.50;17.33;;;;;;;-1.51;100.00;99837.50;5109453;27;20099;-82
2022/01/16 00:26:38;;;;;;;53.47;17.42;;;;;;;-1.50;100.00;99831.25;5107893;28;20093;-82
2022/01/16 00:29:11;;;;;;;50.00;17.97;;;;;;;-1.37;100.00;99824.22;5111924;27;20109;-82
2022/01/16 00:31:40;;;;;;;59.87;19.50;;;;;;;-1.38;100.00;99832.31;5112469;28;20111;-82
2022/01/16 00:34:08;;;;;;;57.13;20.23;;;;;;;-1.33;100.00;99825.72;5112764;28;20044;-82
2022/01/16 00:36:35;;;;;;;52.70;19.38;;;;;;;-1.43;100.00;99796.09;5111655;27;20071;-85
2022/01/16 00:39:04;;;;;;;50.65;17.63;;;;;;;-1.36;100.00;99812.59;5108428;28;20043;-85
2022/01/16 00:41:32;;;;;;;84.38;25.42;;;;;;;-1.41;100.00;99804.00;5111065;28;20055;-85
2022/01/16 00:44:01;;;;;;;59.00;18.95;;;;;;;-1.51;100.00;99806.34;5099826;28;20164;-85
2022/01/16 00:46:29;;;;;;;58.37;17.47;;;;;;;-1.37;100.00;99839.34;5104461;27;20059;-86
2022/01/16 00:48:56;;;;;;;55.03;17.45;;;;;;;-1.50;100.00;99807.25;5111613;27;20043;-85
2022/01/16 00:51:23;;;;;;;51.33;18.40;;;;;;;-1.43;100.00;99824.56;5114176;28;20044;-85
2022/01/16 00:53:50;;;;;;;59.10;16.58;;;;;;;-1.50;100.00;99804.56;5107911;28;20044;-83
2022/01/16 00:56:17;;;;;;;47.37;17.27;;;;;;;-1.42;100.00;99858.28;5108631;28;20047;-83
2022/01/16 00:58:50;;;;;;;49.50;16.57;;;;;;;-1.59;100.00;99829.97;5111555;28;20051;-83
2022/01/16 01:01:18;;;;;;;43.97;16.50;;;;;;;-1.48;100.00;99867.50;5100647;28;20039;-82
2022/01/16 01:03:49;;;;;;;47.87;17.33;;;;;;;-1.60;100.00;99836.25;5107569;28;20058;-83
2022/01/16 01:06:17;;;;;;;46.00;15.27;;;;;;;-1.50;100.00;99869.44;5111924;28;20051;-83
2022/01/16 01:08:44;;;;;;;52.77;16.83;;;;;;;-1.46;100.00;99856.75;5111282;28;20046;-83
2022/01/16 01:11:15;;;;;;;53.23;16.53;;;;;;;-1.42;100.00;99850.28;5111026;27;20483;-83
2022/01/16 01:16:50;;;;;;;51.93;17.27;;;;;;;-1.44;100.00;99850.38;5065346;28;20071;-83
2022/01/16 01:19:21;;;;;;;58.38;17.42;;;;;;;-1.40;100.00;99858.22;5102095;28;20101;-83
2022/01/16 01:21:50;;;;;;;54.87;16.33;;;;;;;-1.33;100.00;99811.53;5109427;28;20419;-83
2022/01/16 01:24:17;;;;;;;72.97;17.77;;;;;;;-1.36;100.00;99745.03;5107018;28;20429;-83
2022/01/16 01:26:54;;;;;;;61.63;17.07;;;;;;;-1.47;100.00;99737.72;5114164;27;20395;-83
2022/01/16 01:29:28;;;;;;;58.00;16.87;;;;;;;-1.50;100.00;99741.41;5105911;28;20047;-83
2022/01/16 01:31:56;;;;;;;75.57;19.03;;;;;;;-1.48;100.00;99754.66;5111129;28;20058;-83
2022/01/16 01:34:24;;;;;;;64.20;18.63;;;;;;;-1.36;100.00;99753.03;5103691;28;20040;-83
2022/01/16 01:40:10;;;;;;;78.20;18.15;;;;;;;-1.49;100.00;99795.59;5107386;28;20128;-83
2022/01/16 01:42:44;;;;;;;48.13;15.90;;;;;;;-1.60;100.00;99817.59;5111212;28;20044;-83
2022/01/16 01:53:28;;;;;;;55.40;17.47;;;;;;;-1.53;100.00;99858.94;5111429;27;20097;-83
2022/01/16 01:55:55;;;;;;;68.43;17.50;;;;;;;-1.57;100.00;99851.22;5105727;28;20048;-83
2022/01/16 01:58:22;;;;;;;73.13;19.67;;;;;;;-1.64;100.00;99816.03;5110754;28;20048;-82
2022/01/16 02:00:49;;;;;;;63.40;19.50;;;;;;;-1.55;100.00;99827.97;5110106;28;20440;-83
2022/01/16 02:03:22;;;;;;;58.17;17.37;;;;;;;-1.36;100.00;99820.59;5109060;28;20407;-83
2022/01/16 02:06:13;;;;;;;93.27;19.60;;;;;;;-1.31;100.00;99849.66;5107081;27;20043;-83
2022/01/16 02:08:43;;;;;;;70.30;16.60;;;;;;;-1.46;100.00;99856.75;5108591;28;20047;-83
2022/01/16 02:11:18;;;;;;;59.40;17.73;;;;;;;-1.41;100.00;99868.03;5111347;28;20067;-83
2022/01/16 02:14:50;;;;;;;63.33;17.97;;;;;;;-1.38;100.00;99873.19;5096817;28;20051;-83
2022/01/16 02:28:23;;;;;;;73.40;20.57;;;;;;;-1.38;100.00;99864.31;5106209;28;20051;-82
2022/01/16 02:31:14;;;;;;;71.47;19.07;;;;;;;-1.45;100.00;99850.47;5111448;27;20171;-82
2022/01/16 02:36:30;;;;;;;72.00;18.97;;;;;;;-1.52;100.00;99860.66;5097266;28;20040;-82
2022/01/16 02:39:01;;;;;;;66.27;19.23;;;;;;;-1.48;100.00;99859.50;5107570;28;20047;-82
2022/01/16 02:41:28;;;;;;;70.83;18.60;;;;;;;-1.57;100.00;99829.88;5110951;28;20051;-82
2022/01/16 02:43:56;;;;;;;72.05;20.15;;;;;;;-1.57;100.00;99829.88;5110326;28;20051;-82
2022/01/16 02:46:39;;;;;;;79.90;20.67;;;;;;;-1.61;100.00;99821.22;5107323;28;20047;-82
2022/01/16 02:49:17;;;;;;;84.83;21.67;;;;;;;-1.59;100.00;99840.63;5104513;28;20138;-82
2022/01/16 02:51:45;;;;;;;75.63;19.20;;;;;;;-1.69;100.00;99826.13;5105543;28;20066;-82
2022/01/16 02:54:13;;;;;;;75.27;18.80;;;;;;;-1.73;100.00;99822.81;5105716;27;20059;-82
2022/01/16 02:56:43;;;;;;;70.30;18.83;;;;;;;-1.63;100.00;99825.75;5108201;28;20052;-82
2022/01/16 02:59:11;;;;;;;72.68;20.65;;;;;;;-1.74;100.00;99814.91;5108630;28;20147;-82
2022/01/16 03:01:38;;;;;;;77.40;20.87;;;;;;;-1.68;100.00;99823.38;5110090;28;20040;-82
2022/01/16 03:04:05;;;;;;;74.90;22.50;;;;;;;-1.76;100.00;99816.78;5108439;28;20043;-82
2022/01/16 03:06:32;;;;;;;72.87;20.83;;;;;;;-1.69;100.00;99807.47;5107687;28;20056;-82
2022/01/16 03:08:59;;;;;;;76.93;21.37;;;;;;;-1.58;100.00;99829.03;5108923;28;20043;-82
2022/01/16 03:11:35;;;;;;;78.37;22.37;;;;;;;-1.73;100.00;99798.81;5107704;28;20050;-82
2022/01/16 03:14:02;;;;;;;79.43;22.60;;;;;;;-1.56;100.00;99808.47;5106930;28;20050;-82
2022/01/16 03:16:31;;;;;;;73.20;22.27;;;;;;;-1.71;100.00;99806.72;5113045;28;20051;-82
2022/01/16 03:21:57;;;;;;;64.57;21.30;;;;;;;-1.73;100.00;99797.94;5113638;27;20505;-82
2022/01/16 03:24:37;;;;;;;60.60;20.50;;;;;;;-1.68;100.00;99804.72;5108671;28;20046;-82
2022/01/16 03:27:16;;;;;;;65.15;22.05;;;;;;;-1.67;100.00;99792.22;5105510;28;20142;-82
2022/01/16 03:29:45;;;;;;;65.93;20.27;;;;;;;-1.64;100.00;99800.91;5114656;27;20116;-82
2022/01/16 03:32:14;;;;;;;66.03;20.27;;;;;;;-1.84;100.00;99778.09;5112996;28;20044;-82
2022/01/16 03:34:41;;;;;;;54.35;19.58;;;;;;;-1.76;100.00;99793.66;5109231;28;20054;-82
2022/01/16 03:37:09;;;;;;;58.40;19.70;;;;;;;-1.82;100.00;99799.34;5110912;28;20043;-82
2022/01/16 03:39:42;;;;;;;60.70;19.23;;;;;;;-1.76;100.00;99811.44;5112244;28;20044;-82
2022/01/16 03:42:23;;;;;;;53.53;18.87;;;;;;;-1.82;100.00;99810.88;5110946;27;20415;-82
2022/01/16 03:44:59;;;;;;;51.10;19.47;;;;;;;-1.85;100.00;99812.84;5108088;28;20039;-82
2022/01/16 03:47:26;;;;;;;55.53;19.80;;;;;;;-1.81;100.00;99831.25;5114031;28;20051;-82
2022/01/16 03:49:53;;;;;;;52.97;20.23;;;;;;;-1.80;100.00;99818.78;5101791;28;20574;-82
2022/01/16 03:52:20;;;;;;;56.50;20.57;;;;;;;-1.77;100.00;99825.75;5109269;28;20047;-82
2022/01/16 03:54:47;;;;;;;75.57;21.67;;;;;;;-1.82;100.00;99808.19;5109770;27;20039;-82
2022/01/16 03:57:14;;;;;;;58.53;21.37;;;;;;;-1.83;100.00;99808.28;5113818;28;20384;-82
2022/01/16 03:59:45;;;;;;;56.70;19.90;;;;;;;-1.68;100.00;99825.19;5107991;28;20063;-82
2022/01/16 04:02:12;;;;;;;52.73;21.23;;;;;;;-1.78;100.00;99803.53;5113237;28;20397;-81
2022/01/16 04:04:39;;;;;;;53.03;20.17;;;;;;;-1.79;100.00;99808.03;5114857;27;20054;-82
2022/01/16 04:07:35;;;;;;;45.73;17.80;;;;;;;-1.86;100.00;99806.66;5111955;28;20062;-81
2022/01/16 04:10:14;;;;;;;50.43;18.30;;;;;;;-1.80;100.00;99834.75;5111884;27;20047;-82
2022/01/16 04:12:41;;;;;;;50.13;18.13;;;;;;;-1.79;100.00;99807.16;5111461;28;20052;-82
2022/01/16 04:17:54;;;;;;;48.20;19.57;;;;;;;-1.72;100.00;99810.31;5119010;27;20054;-82
2022/01/16 04:20:24;;;;;;;53.57;18.57;;;;;;;-1.75;100.00;99794.50;5113250;28;20051;-82
2022/01/16 04:22:51;;;;;;;54.53;20.17;;;;;;;-1.65;100.00;99819.69;5113015;28;20062;-82
2022/01/16 04:25:21;;;;;;;51.70;23.10;;;;;;;-1.84;100.00;99799.41;5107726;27;20050;-82
2022/01/16 04:27:48;;;;;;;;;;;;;;;-1.71;100.00;99820.03;5104344;28;20567;-82
2022/01/16 04:30:23;;;;;;;50.70;18.27;;;;;;;-1.72;100.00;99819.16;5111534;28;19927;-82
2022/01/16 04:32:50;;;;;;;43.93;16.53;;;;;;;-1.85;100.00;99799.50;5108025;27;20047;-82
2022/01/16 04:35:17;;;;;;;48.17;18.23;;;;;;;-1.85;100.00;99792.38;5109646;28;20086;-82
2022/01/16 04:37:47;;;;;;;51.20;16.67;;;;;;;-1.88;100.00;99791.69;5112399;28;20043;-82
2022/01/16 04:40:15;;;;;;;52.73;19.43;;;;;;;-1.75;100.00;99811.34;5113178;28;20050;-82
2022/01/16 04:45:29;;;;;;;51.47;17.93;;;;;;;-1.74;100.00;99810.41;5113644;28;20066;-82
2022/01/16 04:47:56;;;;;;;46.27;19.33;;;;;;;-1.69;100.00;99796.81;5113188;27;20036;-82
2022/01/16 04:50:25;;;;;;;45.27;17.70;;;;;;;-1.77;100.00;99791.09;5111706;28;20149;-82
2022/01/16 04:52:52;;;;;;;53.30;18.95;;;;;;;-1.88;100.00;99773.03;5112742;28;20039;-82
2022/01/16 04:55:23;;;;;;;50.50;19.73;;;;;;;-1.81;100.00;99787.72;5113587;28;20100;-82
2022/01/16 04:57:50;;;;;;;48.43;19.17;;;;;;;-1.65;100.00;99806.34;5113004;28;20646;-82
2022/01/16 05:00:17;;;;;;;50.43;20.10;;;;;;;-1.68;100.00;99803.88;5112755;28;20055;-82
2022/01/16 05:02:46;;;;;;;52.07;19.33;;;;;;;-1.74;100.00;99802.41;5105696;28;20051;-82
2022/01/16 05:05:13;;;;;;;49.70;18.73;;;;;;;-1.71;100.00;99806.72;5110549;27;20139;-82
2022/01/16 05:07:40;;;;;;;46.47;18.37;;;;;;;-1.82;100.00;99797.53;5112612;28;20047;-82
2022/01/16 05:10:08;;;;;;;55.47;19.83;;;;;;;-1.81;100.00;99788.59;5112728;28;20056;-82
2022/01/16 05:12:38;;;;;;;46.43;19.67;;;;;;;-1.90;100.00;99789.13;5113040;28;20044;-82
2022/01/16 05:17:51;;;;;;;45.03;18.23;;;;;;;-1.81;100.00;99801.06;5109916;28;20058;-81
2022/01/16 05:20:18;;;;;;;48.87;16.93;;;;;;;-1.85;100.00;99799.50;5112843;28;20056;-82
2022/01/16 05:22:45;;;;;;;45.87;18.07;;;;;;;-1.82;100.00;99802.03;5111881;28;20067;-81
2022/01/16 05:25:15;;;;;;;50.50;17.53;;;;;;;-1.73;100.00;99808.59;5112137;28;20052;-82
2022/01/16 05:27:42;;;;;;;51.85;19.85;;;;;;;-1.84;100.00;99795.91;5111892;28;20083;-82
2022/01/16 05:30:09;;;;;;;47.90;17.93;;;;;;;-1.79;100.00;99807.16;5113028;28;20069;-82
2022/01/16 05:32:36;;;;;;;43.50;17.17;;;;;;;-1.89;100.00;99782.00;5112163;28;20051;-82
2022/01/16 05:35:06;;;;;;;45.03;18.23;;;;;;;-1.86;100.00;99795.16;5107317;28;20410;-82
2022/01/16 05:37:33;;;;;;;52.35;18.42;;;;;;;-1.82;100.00;99805.53;5112955;28;20331;-82
2022/01/16 05:40:00;;;;;;;44.53;17.17;;;;;;;-1.82;100.00;99791.38;5111695;28;20455;-82
2022/01/16 05:42:27;;;;;;;48.60;19.10;;;;;;;-1.71;100.00;99817.38;5111416;28;20460;-82
2022/01/16 05:44:54;;;;;;;46.70;18.77;;;;;;;-1.66;100.00;99818.78;5111234;28;20048;-82
2022/01/16 05:47:20;;;;;;;57.10;20.90;;;;;;;-1.76;100.00;99806.09;5113099;28;20050;-82
2022/01/16 05:49:47;;;;;;;53.17;19.50;;;;;;;-1.81;100.00;99801.94;5111481;28;20388;-82
2022/01/16 05:52:15;;;;;;;45.47;19.77;;;;;;;-1.74;100.00;99799.75;5111874;28;20043;-82
2022/01/16 05:54:42;;;;;;;46.57;16.70;;;;;;;-1.77;100.00;99809.75;5109595;28;20112;-81
2022/01/16 05:57:10;;;;;;;47.33;18.60;;;;;;;-1.72;100.00;99810.31;5109931;28;20036;-82
2022/01/16 05:59:36;;;;;;;42.67;18.80;;;;;;;-1.63;100.00;99829.28;5109152;27;20487;-82
2022/01/16 06:02:04;;;;;;;48.27;17.77;;;;;;;-1.70;100.00;99829.72;5110152;28;20096;-82
2022/01/16 06:04:31;;;;;;;50.37;18.23;;;;;;;-1.74;100.00;99820.22;5110582;28;20495;-82
2022/01/16 06:06:58;;;;;;;42.67;17.53;;;;;;;-1.69;100.00;99839.47;5108816;28;20051;-82
2022/01/16 06:09:26;;;;;;;50.10;17.43;;;;;;;-1.74;100.00;99836.22;5111779;28;20053;-81
2022/01/16 06:11:55;;;;;;;47.17;16.87;;;;;;;-1.84;100.00;99815.41;5100196;28;20071;-82
2022/01/16 06:14:23;;;;;;;50.20;19.33;;;;;;;-1.72;100.00;99831.66;5111444;28;20375;-82
2022/01/16 06:16:53;;;;;;;48.73;19.30;;;;;;;-1.80;100.00;99838.28;5110923;28;20104;-81
2022/01/16 06:19:20;;;;;;;50.97;19.50;;;;;;;-1.72;100.00;99843.16;5111656;28;20047;-82
2022/01/16 06:21:47;;;;;;;52.67;19.93;;;;;;;-1.77;100.00;99831.91;5111050;28;20057;-82
2022/01/16 06:24:14;;;;;;;54.07;18.87;;;;;;;-1.67;100.00;99843.75;5108812;28;20487;-81
2022/01/16 06:26:43;;;;;;;50.70;18.07;;;;;;;-1.64;100.00;99850.69;5111736;28;20452;-82
2022/01/16 06:29:10;;;;;;;46.00;19.03;;;;;;;-1.57;100.00;99860.06;5110777;28;20040;-82
2022/01/16 06:31:40;;;;;;;48.58;17.95;;;;;;;-1.69;100.00;99842.97;5112122;28;20494;-82
2022/01/16 06:34:07;;;;;;;49.50;17.92;;;;;;;-1.51;100.00;99865.03;5111932;28;20093;-82
2022/01/16 06:36:38;;;;;;;56.77;19.80;;;;;;;-1.54;100.00;99859.03;5113457;28;20463;-82
2022/01/16 06:39:10;;;;;;;50.43;18.17;;;;;;;-1.60;100.00;99844.25;5110595;28;20053;-81
2022/01/16 06:41:38;;;;;;;50.97;18.17;;;;;;;-1.56;100.00;99864.47;5110132;28;20112;-82
2022/01/16 06:44:06;;;;;;;44.33;16.77;;;;;;;-1.68;100.00;99851.84;5110881;28;20379;-82
2022/01/16 06:46:33;;;;;;;49.95;18.85;;;;;;;-1.70;100.00;99864.41;5111312;28;20422;-82
2022/01/16 06:49:00;;;;;;;47.45;18.17;;;;;;;-1.70;100.00;99865.28;5115593;28;20368;-82
2022/01/16 06:51:27;;;;;;;52.43;19.20;;;;;;;-1.80;100.00;99856.94;5114371;28;20517;-81
2022/01/16 06:53:56;;;;;;;49.03;18.50;;;;;;;-1.68;100.00;99873.19;5114577;28;20104;-82
2022/01/16 06:56:24;;;;;;;50.05;19.23;;;;;;;-1.68;100.00;99878.50;5114010;28;20044;-82
2022/01/16 06:58:52;;;;;;;56.13;20.40;;;;;;;-1.70;100.00;99885.72;5114213;28;20048;-82
2022/01/16 07:01:20;;;;;;;47.53;20.23;;;;;;;-1.54;100.00;99888.38;5115128;28;20046;-82
2022/01/16 07:03:48;;;;;;;47.07;18.80;;;;;;;-1.61;100.00;99902.06;5114635;28;20073;-81
2022/01/16 07:06:15;;;;;;;49.42;19.17;;;;;;;-1.74;100.00;99884.22;5115552;28;20128;-81
2022/01/16 07:08:43;;;;;;;56.33;21.10;;;;;;;-1.67;100.00;99905.09;5114734;28;20043;-85
2022/01/16 07:11:11;;;;;;;56.07;18.73;;;;;;;-1.75;100.00;99915.31;5106721;28;20051;-80
2022/01/16 07:13:37;;;;;;;49.77;19.73;;;;;;;-1.68;100.00;99932.69;5112841;28;20051;-81
2022/01/16 07:16:05;;;;;;;56.73;20.17;;;;;;;-1.86;100.00;99902.59;5114150;28;20372;-82
2022/01/16 07:18:33;;;;;;;53.33;19.93;;;;;;;-1.72;100.00;99924.94;5114779;28;20055;-82
2022/01/16 07:21:00;;;;;;;54.67;19.40;;;;;;;-1.86;100.00;99897.28;5114711;28;20039;-82
2022/01/16 07:23:28;;;;;;;54.37;19.53;;;;;;;-1.75;100.00;99917.97;5113923;28;20494;-82
2022/01/16 07:25:55;;;;;;;56.40;20.17;;;;;;;-1.75;100.00;99925.97;5114334;28;20048;-82
2022/01/16 07:28:22;;;;;;;56.17;18.80;;;;;;;-1.76;100.00;99942.06;5114358;28;20060;-82
2022/01/16 07:30:49;;;;;;;46.27;18.10;;;;;;;-1.84;100.00;99934.50;5113874;28;20047;-82
2022/01/16 07:33:16;;;;;;;50.27;17.77;;;;;;;-1.74;100.00;99943.69;5112894;28;20039;-82
2022/01/16 07:35:44;;;;;;;44.40;17.77;;;;;;;-1.86;100.00;99928.41;5114941;28;20105;-82
2022/01/16 07:38:11;;;;;;;48.40;18.83;;;;;;;-1.82;100.00;99932.63;5114424;28;20036;-82
2022/01/16 07:40:38;;;;;;;52.23;20.17;;;;;;;-1.84;100.00;99926.50;5114777;28;20048;-82
2022/01/16 07:43:06;;;;;;;46.73;16.70;;;;;;;-1.71;100.00;99942.69;5113910;28;20047;-82
2022/01/16 07:45:33;;;;;;;51.10;19.47;;;;;;;-1.79;100.00;99941.31;5113123;28;20100;-82
2022/01/16 07:47:59;;;;;;;47.17;17.40;;;;;;;-1.83;100.00;99939.75;5114041;28;20040;-82
2022/01/16 07:50:26;;;;;;;43.87;18.13;;;;;;;-1.70;100.00;99966.59;5113951;28;20134;-82
2022/01/16 07:52:55;;;;;;;47.73;18.93;;;;;;;-1.84;100.00;99951.34;5114023;28;20051;-82
2022/01/16 07:55:25;;;;;;;42.90;17.23;;;;;;;-1.70;100.00;99987.91;5113623;28;20043;-82
2022/01/16 07:57:52;;;;;;;;;;;;;;;-1.68;100.00;99985.16;5113646;28;20052;-82
2022/01/16 08:00:18;;;;;;;35.27;16.23;;;;;;;-1.89;100.00;99963.25;5113880;28;19920;-82
2022/01/16 08:02:45;;;;;;;54.03;19.60;;;;;;;-1.81;100.00;99980.53;5111974;28;20047;-82
2022/01/16 08:05:12;;;;;;;47.73;17.97;;;;;;;-1.80;100.00;99973.38;5113297;28;20043;-82
2022/01/16 08:07:39;;;;;;;48.10;17.63;;;;;;;-1.79;100.00;99997.28;5113017;28;20044;-81
2022/01/16 08:10:09;;;;;;;50.33;19.17;;;;;;;-1.81;100.00;99998.31;5113795;28;20391;-82
2022/01/16 08:12:36;;;;;;;43.47;18.23;;;;;;;-1.94;100.00;99987.47;5113397;28;20051;-82
2022/01/16 08:15:04;;;;;;;45.53;17.20;;;;;;;-1.97;100.00;99974.34;5113767;28;20044;-82
2022/01/16 08:17:31;;;;;;;46.93;19.43;;;;;;;-1.81;100.00;99982.31;5110959;28;20096;-82
2022/01/16 08:19:58;;;;;;;42.53;15.57;;;;;;;-1.89;100.00;99980.06;5113640;28;20103;-82
2022/01/16 08:22:24;;;;;;;39.67;16.20;;;;;;;-1.92;100.00;99996.25;5112395;28;20109;-82
2022/01/16 08:24:57;;;;;;;43.20;16.43;;;;;;;-1.95;100.00;99985.75;5111844;28;20040;-82
2022/01/16 08:27:25;;;;;;;43.87;15.87;;;;;;;-1.94;100.00;99983.94;5113055;28;20052;-81
2022/01/16 08:29:52;;;;;;;47.20;16.83;;;;;;;-2.01;100.00;99988.75;5113767;28;20039;-82
2022/01/16 08:32:19;;;;;;;46.37;19.73;;;;;;;-1.85;100.00;99997.63;5113143;28;20061;-82
2022/01/16 08:34:46;;;;;;;49.73;18.60;;;;;;;-1.92;100.00;99992.72;5111165;28;20403;-82
2022/01/16 08:37:13;;;;;;;52.53;18.37;;;;;;;-1.87;100.00;100002.16;5113362;28;20043;-82
2022/01/16 08:39:39;;;;;;;49.13;18.33;;;;;;;-1.76;100.00;100003.38;5113160;28;20036;-82
2022/01/16 08:42:07;;;;;;;43.90;16.77;;;;;;;-1.85;100.00;99978.97;5112723;28;20043;-82
2022/01/16 08:44:38;;;;;;;53.07;18.10;;;;;;;-1.68;100.00;99985.16;5113348;28;20055;-82
2022/01/16 08:47:06;;;;;;;43.13;18.03;;;;;;;-1.56;100.00;100003.13;5113003;28;20058;-82
2022/01/16 08:49:33;;;;;;;50.87;18.60;;;;;;;-1.47;100.00;100001.75;5113080;28;20044;-82
2022/01/16 08:51:59;;;;;;;46.63;18.63;;;;;;;-1.54;100.00;100003.88;5110827;28;20065;-82
2022/01/16 08:54:26;;;;;;;43.67;16.23;;;;;;;-1.56;100.00;100004.94;5112332;28;20122;-82
2022/01/16 08:56:53;;;;;;;47.83;17.07;;;;;;;-1.63;100.00;99994.59;5113060;28;20059;-82
2022/01/16 08:59:20;;;;;;;39.83;17.37;;;;;;;-1.65;100.00;100012.50;5111936;28;20044;-82
2022/01/16 09:01:50;;;;;;;48.30;18.80;;;;;;;-1.61;100.00;100024.72;5111207;28;20047;-81
2022/01/16 09:04:17;;;;;;;48.97;17.38;;;;;;;-1.74;100.00;100009.50;5111749;28;20050;-81
2022/01/16 09:06:43;;;;;;;53.07;20.13;;;;;;;-1.63;100.00;100031.94;5114517;28;20055;-81
2022/01/16 09:09:10;;;;;;;39.77;16.57;;;;;;;-1.69;100.00;100034.09;5112468;28;20043;-81
2022/01/16 09:11:37;;;;;;;42.13;17.77;;;;;;;-1.77;100.00;100028.34;5114060;28;20044;-81
2022/01/16 09:14:04;;;;;;;44.30;17.93;;;;;;;-1.88;100.00;100016.47;5111926;28;20051;-81
2022/01/16 09:16:31;;;;;;;52.00;17.53;;;;;;;-1.79;100.00;100041.75;5112065;28;20055;-82
2022/01/16 09:18:59;;;;;;;42.27;18.17;;;;;;;-1.77;100.00;100047.84;5112668;28;20070;-81
2022/01/16 09:21:26;;;;;;;43.47;18.27;;;;;;;-1.79;100.00;100031.09;5109360;28;20479;-81
2022/01/16 09:23:53;;;;;;;42.73;17.73;;;;;;;-1.72;100.00;100053.78;5111838;28;20070;-82
2022/01/16 09:26:21;;;;;;;55.20;19.20;;;;;;;-1.84;100.00;100047.31;5111730;28;20051;-81
2022/01/16 09:28:48;;;;;;;50.03;19.00;;;;;;;-1.86;100.00;100043.03;5113158;28;20130;-81
2022/01/16 09:31:15;;;;;;;43.53;18.47;;;;;;;-1.85;100.00;100044.72;5111716;28;20052;-82
2022/01/16 09:33:44;;;;;;;44.87;19.27;;;;;;;-1.76;100.00;100067.34;5112007;28;20054;-81
2022/01/16 09:36:12;;;;;;;51.83;18.03;;;;;;;-1.91;100.00;100061.06;5112043;28;20491;-81
2022/01/16 09:38:40;;;;;;;49.83;18.83;;;;;;;-1.77;100.00;100079.84;5102501;27;20402;-82
2022/01/16 09:41:07;;;;;;;55.53;19.77;;;;;;;-1.76;100.00;100083.34;5112734;28;20039;-82
2022/01/16 09:43:36;;;;;;;42.53;18.63;;;;;;;-1.77;100.00;100066.50;5111634;28;20044;-82
2022/01/16 09:46:03;;;;;;;49.20;19.00;;;;;;;-1.74;100.00;100065.50;5112032;28;20063;-82
2022/01/16 09:48:31;;;;;;;48.23;19.30;;;;;;;-1.64;100.00;100088.88;5112219;28;20097;-81
2022/01/16 09:50:58;;;;;;;47.23;19.97;;;;;;;-1.76;100.00;100062.03;5111382;28;20071;-82
2022/01/16 09:53:26;;;;;;;51.03;19.90;;;;;;;-1.59;100.00;100082.44;5110012;28;20540;-82
2022/01/16 09:55:56;;;;;;;53.03;19.57;;;;;;;-1.64;100.00;100064.88;5111500;28;20479;-82
2022/01/16 09:58:22;;;;;;;;;;;;;;;-1.45;100.00;100091.38;5112812;28;20395;-82
2022/01/16 10:00:51;;;;;;;42.77;18.57;;;;;;;-1.51;100.00;100072.19;5111424;28;19919;-81
2022/01/16 10:03:34;;;;;;;48.73;20.53;;;;;;;-1.67;100.00;100059.72;5112295;28;20047;-82
2022/01/16 10:06:10;;;;;;;52.50;18.77;;;;;;;-1.47;100.00;100089.75;5107062;28;20341;-82
2022/01/16 10:08:39;;;;;;;50.90;20.47;;;;;;;-1.52;100.00;100075.81;5110006;28;20047;-82
2022/01/16 10:11:23;;;;;;;50.83;21.63;;;;;;;-1.54;100.00;100078.56;5108725;28;20154;-81
2022/01/16 10:13:59;;;;;;;54.07;20.73;;;;;;;-1.59;100.00;100077.97;5111539;28;20049;-81
2022/01/16 10:16:28;;;;;;;53.28;19.27;;;;;;;-1.44;100.00;100100.25;5111617;28;20093;-81
2022/01/16 10:18:55;;;;;;;51.47;20.67;;;;;;;-1.47;100.00;100069.28;5111604;28;20043;-81
2022/01/16 10:21:34;;;;;;;60.17;24.10;;;;;;;-1.26;100.00;100082.34;5111380;28;20046;-81
2022/01/16 10:24:18;;;;;;;57.57;21.07;;;;;;;-1.19;100.00;100086.41;5110672;28;20040;-81
2022/01/16 10:26:46;;;;;;;56.70;22.63;;;;;;;-1.17;100.00;100079.16;5105691;28;20055;-81
2022/01/16 10:29:19;;;;;;;56.90;21.70;;;;;;;-1.22;100.00;100059.88;5111175;27;20100;-81
2022/01/16 10:31:47;;;;;;;51.90;23.20;;;;;;;-1.23;100.00;100066.16;5110924;28;20062;-81
2022/01/16 10:34:28;;;;;;;73.10;23.30;;;;;;;-1.09;100.00;100078.72;5111274;28;20047;-81
2022/01/16 10:36:59;;;;;;;60.17;22.30;;;;;;;-1.19;100.00;100064.19;5109639;28;20048;-81
2022/01/16 10:39:28;;;;;;;67.10;22.93;;;;;;;-1.11;100.00;100086.81;5111730;28;20048;-81
2022/01/16 10:42:17;;;;;;;58.20;21.65;;;;;;;-0.94;100.00;100098.34;5111192;28;20047;-83
2022/01/16 10:44:44;;;;;;;59.72;22.38;;;;;;;-1.07;100.00;100079.47;5109937;28;20104;-81
2022/01/16 10:47:35;;;;;;;43.67;16.23;;;;;;;-1.05;100.00;100079.38;5112723;28;20131;-80
2022/01/16 10:50:15;;;;;;;43.22;16.85;;;;;;;-0.90;100.00;100103.41;5111503;28;20494;-81
2022/01/16 10:52:59;;;;;;;56.73;22.10;;;;;;;-0.97;100.00;100078.00;5110322;28;20055;-80
2022/01/16 10:55:37;;;;;;;61.63;20.90;;;;;;;-0.75;100.00;100104.31;5107896;28;20123;-80
2022/01/16 10:58:11;;;;;;;52.25;20.05;;;;;;;-0.73;100.00;100097.06;5111066;28;20043;-81
2022/01/16 11:00:40;;;;;;;47.60;18.97;;;;;;;-0.75;100.00;100090.13;5109258;28;20056;-81
2022/01/16 11:03:08;;;;;;;56.50;19.03;;;;;;;-0.73;100.00;100097.06;5108185;28;20043;-80
2022/01/16 11:05:37;;;;;;;43.07;16.60;;;;;;;-0.77;100.00;100095.56;5107222;28;20430;-80
2022/01/16 11:08:07;;;;;;;39.60;14.98;;;;;;;-0.65;100.00;100112.63;5108786;28;20043;-80
2022/01/16 11:10:37;;;;;;;49.28;17.80;;;;;;;-0.62;100.00;100106.25;5111541;28;20109;-80
2022/01/16 11:13:06;;;;;;;43.37;15.93;;;;;;;-0.66;100.00;100110.06;5107333;28;20058;-80
2022/01/16 11:15:35;;;;;;;43.17;16.40;;;;;;;-0.63;100.00;100118.78;5109466;28;20054;-80
2022/01/16 11:18:03;;;;;;;54.88;19.75;;;;;;;-0.64;100.00;100113.53;5110416;28;20047;-81
2022/01/16 11:20:34;;;;;;;47.70;17.92;;;;;;;-0.63;100.00;100097.41;5110732;28;20044;-81
2022/01/16 11:23:06;;;;;;;28.60;13.10;;;;;;;-0.50;100.00;100118.88;5108557;28;20046;-81
2022/01/16 11:25:36;;;;;;;49.70;16.70;;;;;;;-0.51;100.00;100109.19;5110451;28;20050;-80
2022/01/16 11:28:09;;;;;;;46.77;16.97;;;;;;;-0.56;100.00;100092.53;5110791;28;20040;-81
2022/01/16 11:30:39;;;;;;;40.13;13.10;;;;;;;-0.49;100.00;100109.94;5109924;28;20047;-81
2022/01/16 11:33:07;;;;;;;45.03;16.92;;;;;;;-0.60;100.00;100102.56;5110816;28;20055;-80
2022/01/16 11:35:39;;;;;;;47.73;16.73;;;;;;;-0.51;100.00;100118.97;5114649;28;20402;-80
2022/01/16 11:38:06;;;;;;;48.67;15.90;;;;;;;-0.55;100.00;100108.47;5112733;27;20399;-81
2022/01/16 11:40:44;;;;;;;37.07;15.33;;;;;;;-0.49;100.00;100111.75;5114038;28;20093;-81
2022/01/16 11:43:26;;;;;;;43.03;16.07;;;;;;;-0.45;100.00;100113.28;5114471;28;20096;-81
2022/01/16 11:46:04;;;;;;;39.85;16.83;;;;;;;-0.43;100.00;100111.38;5113533;28;20121;-80
2022/01/16 11:48:40;;;;;;;31.35;13.85;;;;;;;-0.47;100.00;100108.03;5113149;28;20067;-81
2022/01/16 11:51:28;;;;;;;37.40;14.75;;;;;;;-0.37;100.00;100125.22;5113848;28;20050;-81
2022/01/16 11:54:05;;;;;;;40.10;14.82;;;;;;;-0.42;100.00;100089.03;5112681;27;20047;-81
2022/01/16 11:57:09;;;;;;;37.72;13.77;;;;;;;-0.33;100.00;100117.91;5113639;28;20078;-81
2022/01/16 11:59:40;;;;;;;43.30;12.47;;;;;;;-0.32;100.00;100121.44;5114773;27;20121;-82